Main page
METAR-TAF:

METAR-TAF

Airports :

Rørvik Airport. Ryum

Rørvik, Norway

latitude: 64-50N, longitude: 011-09E, elevation: 4 m

Current weather observation

The report was made 23 minutes ago, at 18:20 UTC
Wind 4 kt from the Northwest, varying between West/Northwest and North
Temperature 14°C
Humidity 88%
Pressure 1016 hPa
Visibility 10 km or more
Few clouds at a height of 1500 ft
Broken clouds at a height of 6500 ft

METAR: ENRM 231820Z 32004KT 290V350 9999 FEW015 BKN065 14/12 Q1016

Time: 20:43 (18:43 UTC)

Forecast

The report was made 4 hours and 43 minutes ago, at 14:00 UTC
Forecast valid from 23 at 15 UTC to 23 at 22 UTC
Wind 8 kt from the North/Northwest
Visibility 10 km or more
Scattered clouds at a height of 1200 ft
Broken clouds at a height of 2000 ft
light rain
Temporary
from 23 at 15 UTC to 23 at 18 UTC
Broken clouds at a height of 900 ft
rain, drizzle,

TAF: ENRM 231400Z 2315/2322 34008KT 9999 -RA SCT012 BKN020 TEMPO 2315/2318 RADZ BKN009

Weather observations and forecasts of more than 4000 airports (METAR and TAF reports).

The available stations are represented by yellow and red dots on the map.

Hover mouse over dot to see the name of the station.

Then click to see weather observations and forecasts.

To change the map : click on the green buttons with a black cross to zoom in, on the green button with a dash to zoom out, or on the green arrows for adjacent maps.


METAR-TAF: